Time;durP1;ratioP1;P1;durP2;ratioP2;P2;SDS_P1;SDS_P2;PMS_P1;PMS_P2;Temp;Humidity;BMP_temperature;BMP_pressure;BME280_temperature;BME280_humidity;BME280_pressure;Samples;Min_cycle;Max_cycle;Signal;HPM_P1;HPM_P2
2022/06/06 00:00:43;;;;;;;86.28;43.45;;;17.30;71.50;;;;;;5090454;28;20411;-77
2022/06/06 00:03:09;;;;;;;73.28;41.50;;;17.30;71.60;;;;;;5081176;28;20386;-77
2022/06/06 00:05:36;;;;;;;80.15;43.85;;;17.30;72.30;;;;;;5084106;28;20506;-76
2022/06/06 00:08:03;;;;;;;85.10;45.35;;;17.30;71.10;;;;;;5084982;28;20393;-79
2022/06/06 00:10:29;;;;;;;86.20;46.20;;;17.20;72.30;;;;;;5079578;28;20396;-78
2022/06/06 00:12:55;;;;;;;81.80;44.40;;;17.20;72.20;;;;;;5097430;28;20748;-77
2022/06/06 00:15:22;;;;;;;82.57;43.73;;;17.20;71.60;;;;;;5078299;28;20406;-78
2022/06/06 00:17:47;;;;;;;84.80;44.57;;;17.20;72.40;;;;;;5094466;28;20814;-77
2022/06/06 00:20:13;;;;;;;82.30;45.07;;;17.20;71.80;;;;;;5094319;28;20408;-77
2022/06/06 00:22:38;;;;;;;91.40;47.30;;;17.10;72.80;;;;;;5087903;28;20429;-78
2022/06/06 00:25:05;;;;;;;82.97;44.33;;;17.20;73.40;;;;;;5087471;28;20430;-79
2022/06/06 00:27:30;;;;;;;85.60;44.58;;;17.10;73.50;;;;;;5079037;28;20420;-78
2022/06/06 00:29:56;;;;;;;87.72;45.72;;;17.10;74.80;;;;;;5059950;28;20393;-79
2022/06/06 00:35:06;;;;;;;72.70;42.30;;;17.10;75.40;;;;;;5082790;28;20431;-79
2022/06/06 00:37:34;;;;;;;76.75;41.40;;;17.10;75.60;;;;;;5085451;28;20401;-76
2022/06/06 00:40:02;;;;;;;73.55;39.58;;;17.10;75.60;;;;;;5071425;28;20407;-76
2022/06/06 00:42:34;;;;;;;73.50;39.10;;;17.00;76.20;;;;;;5098284;28;20399;-77
2022/06/06 00:45:21;;;;;;;64.55;38.30;;;17.10;75.10;;;;;;5093384;28;20449;-77
2022/06/06 00:48:13;;;;;;;62.72;35.05;;;17.10;73.30;;;;;;5072221;28;20415;-80
2022/06/06 00:51:01;;;;;;;61.13;32.65;;;17.10;74.00;;;;;;5058856;28;20424;-77
2022/06/06 00:53:34;;;;;;;61.63;33.00;;;17.10;74.40;;;;;;5070113;28;20410;-80
2022/06/06 00:56:18;;;;;;;52.25;30.00;;;17.10;71.70;;;;;;5083779;28;20453;-80
2022/06/06 00:58:47;;;;;;;58.35;31.48;;;17.10;72.20;;;;;;5062727;28;20412;-83
2022/06/06 01:01:13;;;;;;;62.88;31.60;;;17.00;74.80;;;;;;5071267;28;20366;-81
2022/06/06 01:03:41;;;;;;;56.00;30.40;;;17.00;74.40;;;;;;5062247;28;20421;-82
2022/06/06 01:06:10;;;;;;;53.33;29.48;;;17.00;74.60;;;;;;5051691;28;20857;-83
2022/06/06 01:08:40;;;;;;;58.42;29.50;;;17.00;74.40;;;;;;5068005;28;20405;-80
2022/06/06 01:11:05;;;;;;;55.17;28.90;;;17.00;75.50;;;;;;5074724;28;20372;-82
2022/06/06 01:13:33;;;;;;;47.80;28.67;;;17.00;74.90;;;;;;5080857;28;20448;-81
2022/06/06 01:16:37;;;;;;;53.53;29.50;;;17.00;76.10;;;;;;5065562;28;20394;-79
2022/06/06 01:19:40;;;;;;;49.28;28.77;;;17.00;75.50;;;;;;5080087;28;20401;-78
2022/06/06 01:22:38;;;;;;;52.20;28.15;;;17.00;76.30;;;;;;5073413;28;20455;-81
2022/06/06 01:25:33;;;;;;;50.75;28.58;;;17.00;76.60;;;;;;5058615;28;20435;-80
2022/06/06 01:28:05;;;;;;;50.38;28.33;;;16.90;76.90;;;;;;5085300;28;20404;-82
2022/06/06 01:30:46;;;;;;;49.40;26.13;;;17.00;76.20;;;;;;5071408;28;20398;-79
2022/06/06 01:33:14;;;;;;;51.65;26.35;;;17.00;75.20;;;;;;5092322;28;20368;-80
2022/06/06 01:35:42;;;;;;;47.33;25.35;;;16.90;76.40;;;;;;5080877;22;21002;-76
2022/06/06 01:38:10;;;;;;;52.15;25.45;;;16.80;77.80;;;;;;5070420;28;20950;-76
2022/06/06 01:41:06;;;;;;;47.88;25.98;;;16.80;77.50;;;;;;5079134;28;20399;-76
2022/06/06 01:43:40;;;;;;;45.08;25.35;;;16.80;78.40;;;;;;5075385;28;20413;-76
2022/06/06 01:46:11;;;;;;;51.72;27.33;;;16.90;78.20;;;;;;5073817;28;20848;-76
2022/06/06 01:48:40;;;;;;;50.30;27.27;;;16.80;79.90;;;;;;5073449;28;20416;-77
2022/06/06 01:51:27;;;;;;;48.20;26.40;;;16.80;80.40;;;;;;5076439;28;20387;-76
2022/06/06 01:53:54;;;;;;;56.90;29.08;;;16.80;81.30;;;;;;5057372;28;20392;-77
2022/06/06 01:56:33;;;;;;;52.35;28.35;;;16.80;81.70;;;;;;5061508;28;20464;-76
2022/06/06 01:58:59;;;;;;;54.33;29.10;;;16.80;82.50;;;;;;5079604;28;20379;-76
2022/06/06 02:01:25;;;;;;;56.78;28.70;;;16.80;81.70;;;;;;5072885;28;20399;-76
2022/06/06 02:03:51;;;;;;;57.58;30.45;;;16.80;81.60;;;;;;5071948;28;20471;-76
2022/06/06 02:06:17;;;;;;;58.13;30.95;;;16.80;81.20;;;;;;5069737;28;20979;-76
2022/06/06 02:08:43;;;;;;;54.30;30.08;;;16.90;81.80;;;;;;5071492;28;20740;-76
2022/06/06 02:11:10;;;;;;;57.28;30.17;;;16.80;82.50;;;;;;5071313;28;20379;-76
2022/06/06 02:13:36;;;;;;;57.50;30.33;;;16.80;83.30;;;;;;5071882;28;20388;-77
2022/06/06 02:16:02;;;;;;;56.37;29.67;;;16.80;84.00;;;;;;5069210;28;20839;-76
2022/06/06 02:18:28;;;;;;;60.55;31.25;;;16.80;84.50;;;;;;5071153;28;20467;-77
2022/06/06 02:20:54;;;;;;;60.90;31.80;;;16.80;83.20;;;;;;5076123;28;20380;-75
2022/06/06 02:23:20;;;;;;;58.17;31.73;;;16.90;83.30;;;;;;5075193;28;20431;-76
2022/06/06 02:25:46;;;;;;;59.90;32.23;;;16.80;83.80;;;;;;5064010;28;20385;-77
2022/06/06 02:28:12;;;;;;;53.43;28.33;;;16.80;84.70;;;;;;5073468;28;20930;-76
2022/06/06 02:30:38;;;;;;;58.03;30.08;;;16.80;84.10;;;;;;5071907;28;20388;-76
2022/06/06 02:33:05;;;;;;;54.03;28.57;;;16.90;82.00;;;;;;5072269;28;20386;-75
2022/06/06 02:35:33;;;;;;;54.22;27.90;;;16.90;81.20;;;;;;5071829;28;20884;-76
2022/06/06 02:37:59;;;;;;;44.70;23.92;;;16.90;79.70;;;;;;5059824;28;20745;-76
2022/06/06 02:40:26;;;;;;;43.72;23.85;;;17.00;79.00;;;;;;5071792;28;20389;-76
2022/06/06 02:42:53;;;;;;;38.20;21.65;;;17.00;77.00;;;;;;5070388;28;20380;-76
2022/06/06 02:45:19;;;;;;;41.25;22.58;;;17.00;75.30;;;;;;5065906;28;20407;-76
2022/06/06 02:47:47;;;;;;;37.28;21.00;;;17.00;75.90;;;;;;5081419;28;20427;-75
2022/06/06 02:50:16;;;;;;;36.08;20.23;;;17.10;74.40;;;;;;5092202;28;20394;-74
2022/06/06 02:52:43;;;;;;;35.00;19.83;;;17.10;72.80;;;;;;5081430;28;20396;-75
2022/06/06 02:55:10;;;;;;;36.40;19.67;;;17.10;72.90;;;;;;5056729;28;20385;-75
2022/06/06 02:57:40;;;;;;;35.00;18.25;;;17.00;71.50;;;;;;5052986;28;20385;-75
2022/06/06 03:00:08;;;;;;;31.80;17.85;;;17.10;71.80;;;;;;5052041;28;20461;-76
2022/06/06 03:02:35;;;;;;;28.58;17.13;;;17.10;70.70;;;;;;5074135;28;20414;-76
2022/06/06 03:05:01;;;;;;;25.80;15.87;;;17.10;69.80;;;;;;5063107;28;20404;-77
2022/06/06 03:07:32;;;;;;;29.45;16.67;;;17.10;70.20;;;;;;5071501;28;20431;-77
2022/06/06 03:10:01;;;;;;;25.58;14.75;;;17.00;71.30;;;;;;5071996;28;20387;-76
2022/06/06 03:13:04;;;;;;;28.13;15.80;;;16.90;70.80;;;;;;5072394;28;20375;-75
2022/06/06 03:22:10;;;;;;;19.40;13.10;;;16.90;69.30;;;;;;5074071;28;20435;-78
2022/06/06 03:24:56;;;;;;;26.47;13.37;;;16.80;68.10;;;;;;5074370;28;20411;-79
2022/06/06 03:27:29;;;;;;;22.98;13.32;;;16.80;67.10;;;;;;5080823;28;20490;-79
2022/06/06 03:30:19;;;;;;;27.27;13.48;;;16.80;68.10;;;;;;5060092;28;20892;-79
2022/06/06 03:32:47;;;;;;;21.77;12.05;;;16.80;68.50;;;;;;5079310;28;20376;-78
2022/06/06 03:35:18;;;;;;;23.13;12.20;;;16.80;67.60;;;;;;5068335;28;20488;-78
2022/06/06 03:38:07;;;;;;;20.20;12.88;;;16.80;66.40;;;;;;5094003;28;20390;-76
2022/06/06 03:41:09;;;;;;;20.65;12.02;;;16.80;65.90;;;;;;5067777;28;20419;-77
2022/06/06 03:43:57;;;;;;;17.35;11.50;;;16.80;65.20;;;;;;5080732;28;20396;-78
2022/06/06 03:46:40;;;;;;;19.00;11.52;;;16.80;64.00;;;;;;5054931;28;20908;-78
2022/06/06 03:49:44;;;;;;;16.95;12.02;;;16.80;64.60;;;;;;5054574;28;20390;-77
2022/06/06 03:52:15;;;;;;;17.90;11.30;;;16.80;64.80;;;;;;5023315;28;20941;-78
2022/06/06 03:54:48;;;;;;;21.83;11.40;;;16.80;64.60;;;;;;5074010;28;20407;-77
2022/06/06 03:57:24;;;;;;;18.90;11.82;;;16.80;64.10;;;;;;5072602;28;20395;-77
2022/06/06 04:00:03;;;;;;;19.45;12.00;;;16.80;63.70;;;;;;5069402;28;20392;-79
2022/06/06 04:02:34;;;;;;;18.73;12.67;;;16.80;63.70;;;;;;5083254;28;20400;-79
2022/06/06 04:05:03;;;;;;;18.88;12.07;;;16.90;62.80;;;;;;5080981;28;20399;-77
2022/06/06 04:07:28;;;;;;;22.57;12.70;;;16.90;62.60;;;;;;5078160;28;20776;-78
2022/06/06 04:09:54;;;;;;;23.00;12.80;;;16.90;62.10;;;;;;5067996;28;20382;-78
2022/06/06 04:12:37;;;;;;;20.33;12.95;;;16.90;61.10;;;;;;5079861;28;20429;-77
2022/06/06 04:15:40;;;;;;;18.75;12.30;;;16.90;61.80;;;;;;5072851;28;20775;-74
2022/06/06 04:18:43;;;;;;;21.63;13.07;;;16.90;60.40;;;;;;5066439;28;20408;-74
2022/06/06 04:21:35;;;;;;;24.75;13.70;;;17.00;59.30;;;;;;5063936;28;20786;-74
2022/06/06 04:24:28;;;;;;;22.08;13.57;;;16.90;59.20;;;;;;5073825;28;20596;-74
2022/06/06 04:26:58;;;;;;;21.65;13.70;;;16.90;59.00;;;;;;5071335;28;20415;-75
2022/06/06 04:29:41;;;;;;;22.27;13.52;;;17.00;58.80;;;;;;5073602;28;20372;-75
2022/06/06 04:32:25;;;;;;;21.67;13.60;;;17.00;58.90;;;;;;5073237;28;20376;-74
2022/06/06 04:35:10;;;;;;;26.02;14.00;;;17.10;57.40;;;;;;5072991;28;20372;-74
2022/06/06 04:37:59;;;;;;;26.45;14.80;;;17.10;57.60;;;;;;5072329;28;20409;-75
2022/06/06 04:41:02;;;;;;;23.02;14.27;;;17.10;57.40;;;;;;5067130;28;20758;-75
2022/06/06 04:44:06;;;;;;;23.83;14.60;;;17.10;57.30;;;;;;5068908;28;20382;-75
2022/06/06 04:46:54;;;;;;;25.45;14.80;;;17.00;58.00;;;;;;5067912;28;20403;-75
2022/06/06 04:49:21;;;;;;;24.17;14.70;;;17.00;58.20;;;;;;5073164;28;20868;-74
2022/06/06 04:51:48;;;;;;;22.33;14.30;;;17.00;57.50;;;;;;5074028;28;20871;-75
2022/06/06 04:54:17;;;;;;;24.75;13.93;;;17.10;56.50;;;;;;5072820;28;20494;-75
2022/06/06 04:56:45;;;;;;;21.52;13.40;;;17.30;54.90;;;;;;5071782;28;20474;-75
2022/06/06 04:59:13;;;;;;;21.10;13.50;;;17.50;53.60;;;;;;5073238;28;20390;-76
2022/06/06 05:01:39;;;;;;;22.30;14.23;;;17.60;51.20;;;;;;5073054;28;20393;-76
2022/06/06 05:04:05;;;;;;;23.27;13.18;;;17.60;50.40;;;;;;5072069;28;20397;-75
2022/06/06 05:06:47;;;;;;;22.65;13.25;;;17.50;52.70;;;;;;5071810;28;20449;-75
2022/06/06 05:09:48;;;;;;;21.02;12.90;;;17.60;51.30;;;;;;5070974;28;20367;-74
2022/06/06 05:12:43;;;;;;;19.03;12.50;;;17.60;51.00;;;;;;5066608;28;20477;-75
2022/06/06 05:15:38;;;;;;;19.83;12.07;;;17.60;51.20;;;;;;5070546;28;20403;-75
2022/06/06 05:18:14;;;;;;;21.25;12.40;;;17.50;51.00;;;;;;5068522;28;20376;-75
2022/06/06 05:21:12;;;;;;;23.27;12.60;;;17.40;51.00;;;;;;5075685;28;20383;-75
2022/06/06 05:23:50;;;;;;;22.02;12.07;;;17.30;51.30;;;;;;5073017;28;20438;-76
2022/06/06 05:26:34;;;;;;;21.27;12.43;;;17.20;52.70;;;;;;5064951;28;20768;-75
2022/06/06 05:29:21;;;;;;;19.02;11.50;;;17.10;53.70;;;;;;5074360;28;20396;-75
2022/06/06 05:32:11;;;;;;;17.65;10.35;;;17.10;53.30;;;;;;5076980;28;20740;-75
2022/06/06 05:34:42;;;;;;;17.17;10.80;;;17.00;50.10;;;;;;5073569;28;20407;-75
2022/06/06 05:37:22;;;;;;;19.67;10.32;;;16.80;50.00;;;;;;5077352;28;20409;-75
2022/06/06 05:40:00;;;;;;;20.65;11.15;;;16.70;51.50;;;;;;5073396;28;20439;-76
2022/06/06 05:42:40;;;;;;;20.95;11.00;;;16.60;51.90;;;;;;5077590;28;20380;-75
2022/06/06 05:45:21;;;;;;;18.58;11.65;;;16.40;53.40;;;;;;5078523;28;20384;-75
2022/06/06 05:48:17;;;;;;;17.02;11.00;;;16.40;55.20;;;;;;5079343;28;20422;-74
2022/06/06 05:51:05;;;;;;;22.35;11.80;;;16.40;55.20;;;;;;5076661;28;20869;-75
2022/06/06 05:54:03;;;;;;;17.95;11.60;;;16.50;55.00;;;;;;5080965;28;20458;-74
2022/06/06 05:56:55;;;;;;;19.20;11.10;;;16.70;53.50;;;;;;5081739;28;20407;-74
2022/06/06 05:59:38;;;;;;;17.53;11.80;;;16.90;52.00;;;;;;5076130;28;20436;-74
2022/06/06 06:02:34;;;;;;;17.90;10.90;;;17.10;50.60;;;;;;5080869;28;20480;-75
2022/06/06 06:05:02;;;;;;;16.20;10.57;;;17.30;49.60;;;;;;5068050;28;20490;-74
2022/06/06 06:07:50;;;;;;;17.08;10.25;;;17.30;48.30;;;;;;5073781;28;20400;-75
2022/06/06 06:10:30;;;;;;;15.95;10.60;;;17.30;48.30;;;;;;5058824;28;20764;-75
2022/06/06 06:13:02;;;;;;;14.55;9.88;;;17.30;47.90;;;;;;5072568;28;20470;-75
2022/06/06 06:15:38;;;;;;;18.50;10.60;;;17.60;45.40;;;;;;5073777;28;20382;-74
2022/06/06 06:18:09;;;;;;;15.32;9.23;;;17.60;45.40;;;;;;5072828;28;20431;-74
2022/06/06 06:20:44;;;;;;;13.80;9.40;;;17.70;44.70;;;;;;5072542;28;20426;-75
2022/06/06 06:23:15;;;;;;;13.48;9.40;;;17.60;43.30;;;;;;5066318;28;20780;-75
2022/06/06 06:25:42;;;;;;;12.35;7.80;;;17.60;42.30;;;;;;5073068;28;20399;-75
2022/06/06 06:28:11;;;;;;;11.35;8.45;;;17.80;41.40;;;;;;5070900;28;20411;-76
2022/06/06 06:31:05;;;;;;;14.65;8.00;;;17.80;40.70;;;;;;5062063;28;20387;-74
2022/06/06 06:33:50;;;;;;;11.67;7.53;;;17.70;41.60;;;;;;5070441;28;20484;-75
2022/06/06 06:36:24;;;;;;;14.50;7.87;;;17.70;41.70;;;;;;5078181;28;20897;-75
2022/06/06 06:39:09;;;;;;;13.73;7.07;;;17.80;40.70;;;;;;5089699;28;20430;-74
2022/06/06 06:42:10;;;;;;;8.68;5.88;;;17.90;39.50;;;;;;5089329;28;20380;-74
2022/06/06 06:44:40;;;;;;;8.90;5.80;;;17.80;35.00;;;;;;5067291;28;20399;-74
2022/06/06 06:47:23;;;;;;;8.07;5.13;;;17.60;35.70;;;;;;5073470;28;20410;-75
2022/06/06 06:50:01;;;;;;;7.90;5.88;;;17.60;38.30;;;;;;5071828;28;20371;-75
2022/06/06 06:52:44;;;;;;;9.20;5.82;;;17.90;37.50;;;;;;5070901;28;20387;-75
2022/06/06 06:55:57;;;;;;;9.30;5.00;;;18.10;35.90;;;;;;5070632;28;20476;-75
2022/06/06 06:58:52;;;;;;;9.15;5.13;;;18.20;35.60;;;;;;5058418;28;20441;-74
2022/06/06 07:10:45;;;;;;;5.97;3.80;;;18.10;31.70;;;;;;5059245;28;20403;-75
2022/06/06 07:13:20;;;;;;;5.60;3.97;;;18.00;31.40;;;;;;5063794;28;20391;-75
2022/06/06 07:15:58;;;;;;;5.43;3.55;;;17.80;31.70;;;;;;5057918;28;20558;-75
2022/06/06 07:18:30;;;;;;;6.53;4.00;;;17.80;31.70;;;;;;5064452;28;20388;-77
2022/06/06 07:20:57;;;;;;;6.65;4.15;;;17.80;32.60;;;;;;5070798;28;20475;-75
2022/06/06 07:23:26;;;;;;;5.53;3.28;;;17.90;32.50;;;;;;5071152;28;20461;-77
2022/06/06 07:25:54;;;;;;;4.57;3.40;;;18.00;29.80;;;;;;5069673;28;20729;-75
2022/06/06 07:28:24;;;;;;;6.05;3.40;;;18.10;29.60;;;;;;5070943;28;20418;-75
2022/06/06 07:31:05;;;;;;;4.80;3.10;;;18.10;29.30;;;;;;5070429;28;20877;-76
2022/06/06 07:34:26;;;;;;;4.20;2.88;;;18.20;28.60;;;;;;5070773;28;20392;-75
2022/06/06 07:37:30;;;;;;;4.90;3.10;;;18.10;29.00;;;;;;5045231;22;21044;-80
2022/06/06 07:40:23;;;;;;;4.20;3.22;;;18.10;29.40;;;;;;5064972;28;21009;-81
2022/06/06 07:43:01;;;;;;;3.40;3.10;;;18.00;29.10;;;;;;5080690;28;20387;-81
2022/06/06 07:45:54;;;;;;;4.88;2.75;;;18.00;29.60;;;;;;5083780;28;20382;-79
2022/06/06 07:48:44;;;;;;;4.47;2.70;;;18.10;30.90;;;;;;5078117;28;20418;-81
2022/06/06 07:51:48;;;;;;;3.05;2.70;;;18.10;29.20;;;;;;5091425;28;20390;-80
2022/06/06 07:54:42;;;;;;;3.20;2.42;;;18.00;29.30;;;;;;5085159;28;20410;-79
2022/06/06 07:57:36;;;;;;;3.43;2.40;;;18.10;28.90;;;;;;5068900;28;20414;-78
2022/06/06 08:00:08;;;;;;;2.42;2.15;;;18.30;26.40;;;;;;5086728;28;20429;-80
2022/06/06 08:02:42;;;;;;;3.10;2.40;;;18.40;24.60;;;;;;5081151;28;20469;-81
2022/06/06 08:05:31;;;;;;;3.08;2.47;;;18.50;26.10;;;;;;5080411;28;20414;-78
2022/06/06 08:08:25;;;;;;;3.40;2.10;;;18.50;24.70;;;;;;5085574;28;20457;-77
2022/06/06 08:10:50;;;;;;;4.00;2.28;;;18.50;24.60;;;;;;5091068;28;20414;-79
2022/06/06 08:13:27;;;;;;;4.88;2.30;;;18.60;24.80;;;;;;5068361;28;20396;-76
2022/06/06 08:15:59;;;;;;;3.50;1.80;;;18.70;25.00;;;;;;5073490;28;20452;-78
2022/06/06 08:19:01;;;;;;;6.50;2.57;;;18.80;24.30;;;;;;5071231;28;20403;-76
2022/06/06 08:21:36;;;;;;;5.03;2.20;;;18.80;22.50;;;;;;5033899;28;20422;-75
2022/06/06 08:24:06;;;;;;;2.67;1.90;;;18.90;23.00;;;;;;5084940;28;20403;-77
2022/06/06 08:26:36;;;;;;;4.63;2.10;;;19.20;23.80;;;;;;5069805;28;20411;-77
2022/06/06 08:29:03;;;;;;;3.72;1.80;;;19.50;22.60;;;;;;5084969;28;20429;-76
2022/06/06 08:31:29;;;;;;;2.20;1.50;;;19.60;22.60;;;;;;5066741;28;20665;-76
2022/06/06 08:33:55;;;;;;;6.03;1.60;;;20.00;20.30;;;;;;5084720;28;20403;-76
2022/06/06 08:36:35;;;;;;;3.70;1.60;;;20.50;18.20;;;;;;5082920;28;20439;-77
2022/06/06 08:39:19;;;;;;;2.50;1.65;;;20.80;17.60;;;;;;5075093;28;20409;-74
2022/06/06 08:42:21;;;;;;;2.85;1.60;;;21.00;17.30;;;;;;5075505;28;20388;-75
2022/06/06 08:45:00;;;;;;;2.35;1.42;;;21.30;16.60;;;;;;5077340;28;20458;-75
2022/06/06 08:47:43;;;;;;;2.80;1.33;;;21.50;15.90;;;;;;5080220;28;20404;-77
2022/06/06 08:50:55;;;;;;;3.60;1.30;;;21.50;15.70;;;;;;5089525;28;20398;-80
2022/06/06 08:53:23;;;;;;;4.05;1.17;;;21.60;15.50;;;;;;5070699;28;20400;-79
2022/06/06 08:56:01;;;;;;;2.90;1.10;;;21.70;15.70;;;;;;5090331;28;20811;-81
2022/06/06 08:58:48;;;;;;;2.25;1.52;;;22.10;15.60;;;;;;5086607;28;20392;-78
2022/06/06 09:01:31;;;;;;;2.60;1.30;;;22.10;14.90;;;;;;5086807;28;20397;-79
2022/06/06 09:04:38;;;;;;;2.40;1.27;;;22.00;14.60;;;;;;5069029;28;20402;-78
2022/06/06 09:07:53;;;;;;;5.57;1.50;;;21.80;15.00;;;;;;5077508;28;20490;-78
2022/06/06 09:10:46;;;;;;;3.60;1.90;;;21.50;15.40;;;;;;5069799;28;20424;-78
2022/06/06 09:13:49;;;;;;;6.50;1.70;;;21.00;16.60;;;;;;5091026;28;20475;-76
2022/06/06 09:16:49;;;;;;;4.20;1.33;;;20.70;17.30;;;;;;5085969;28;20427;-79
2022/06/06 09:19:32;;;;;;;3.00;1.23;;;20.60;16.90;;;;;;5086679;28;20390;-78
2022/06/06 09:22:04;;;;;;;1.60;1.07;;;20.80;15.90;;;;;;5065439;28;20463;-74
2022/06/06 09:24:48;;;;;;;2.42;1.20;;;20.80;15.60;;;;;;5080170;28;20399;-75
2022/06/06 09:27:33;;;;;;;1.90;1.40;;;21.00;16.40;;;;;;5081386;28;20419;-74
2022/06/06 09:30:06;;;;;;;3.40;1.20;;;21.20;16.30;;;;;;5069186;28;20431;-76
2022/06/06 09:33:07;;;;;;;2.30;1.30;;;21.30;15.80;;;;;;5067916;28;20428;-76
2022/06/06 09:35:51;;;;;;;5.95;1.40;;;21.30;15.50;;;;;;5086958;28;20398;-76
2022/06/06 09:38:25;;;;;;;4.57;1.30;;;21.30;15.80;;;;;;5083854;28;20398;-74
2022/06/06 09:41:37;;;;;;;7.32;1.50;;;21.30;15.60;;;;;;5088507;28;20387;-75
2022/06/06 09:45:02;;;;;;;1.38;1.10;;;21.60;15.20;;;;;;4987028;28;20451;-76
2022/06/06 09:47:56;;;;;;;3.30;1.30;;;21.60;15.30;;;;;;4954254;28;20425;-84
2022/06/06 09:50:46;;;;;;;2.00;1.40;;;21.80;15.30;;;;;;5069237;28;20399;-80
2022/06/06 09:53:18;;;;;;;2.50;1.20;;;21.70;14.80;;;;;;5058537;28;20408;-78
2022/06/06 09:59:03;;;;;;;3.63;1.70;;;21.50;15.60;;;;;;5078470;28;20487;-79
2022/06/06 10:01:45;;;;;;;3.90;1.50;;;21.80;15.40;;;;;;5077322;28;20451;-83
2022/06/06 10:04:37;;;;;;;3.40;1.40;;;22.10;14.40;;;;;;5077858;28;20406;-79
2022/06/06 10:07:40;;;;;;;2.28;1.40;;;22.20;14.70;;;;;;5075841;28;20502;-79
2022/06/06 10:10:33;;;;;;;2.63;1.33;;;22.20;14.50;;;;;;5088768;28;20400;-78
2022/06/06 10:13:15;;;;;;;2.50;1.73;;;22.00;15.20;;;;;;5090737;28;20402;-80
2022/06/06 10:16:18;;;;;;;1.90;1.60;;;21.60;15.00;;;;;;5091319;28;20396;-79
2022/06/06 10:18:58;;;;;;;3.17;1.42;;;21.20;16.40;;;;;;5075065;28;20399;-79
2022/06/06 10:21:42;;;;;;;3.67;1.30;;;21.10;17.00;;;;;;5066647;28;20426;-79
2022/06/06 10:24:23;;;;;;;4.20;1.40;;;21.20;17.60;;;;;;5083391;28;20421;-79
2022/06/06 10:27:18;;;;;;;3.10;1.70;;;21.20;17.00;;;;;;5072247;28;20488;-79
2022/06/06 10:30:13;;;;;;;4.50;1.70;;;21.00;17.00;;;;;;5088008;28;20438;-80
2022/06/06 10:33:06;;;;;;;1.77;1.60;;;20.80;17.40;;;;;;5079260;28;20380;-79
2022/06/06 10:35:53;;;;;;;3.27;1.20;;;20.90;17.90;;;;;;5087169;28;20408;-78
2022/06/06 10:38:44;;;;;;;3.20;1.30;;;21.00;17.10;;;;;;5068483;28;20393;-80
2022/06/06 10:41:54;;;;;;;4.70;1.50;;;21.10;17.70;;;;;;5080692;28;20497;-78
2022/06/06 10:44:47;;;;;;;2.10;1.25;;;21.20;17.80;;;;;;5067334;28;20405;-77
2022/06/06 10:47:30;;;;;;;2.28;1.40;;;21.50;16.40;;;;;;5067556;28;20412;-76
2022/06/06 10:50:31;;;;;;;2.90;1.30;;;22.10;16.30;;;;;;5065064;28;20455;-77
2022/06/06 10:53:24;;;;;;;3.38;1.50;;;22.70;14.60;;;;;;4996132;28;20788;-76
2022/06/06 10:56:08;;;;;;;7.53;1.60;;;23.10;13.00;;;;;;5042537;28;20396;-76
2022/06/06 10:59:01;;;;;;;3.90;1.00;;;23.20;12.20;;;;;;5068249;28;20419;-77
2022/06/06 11:01:50;;;;;;;4.35;1.10;;;23.30;12.80;;;;;;5051592;28;20378;-74
2022/06/06 11:04:39;;;;;;;2.97;1.40;;;23.50;11.70;;;;;;5051134;28;20408;-75
2022/06/06 11:07:43;;;;;;;5.32;1.30;;;23.40;11.70;;;;;;5065804;28;20506;-76
2022/06/06 11:10:33;;;;;;;5.83;1.10;;;23.10;12.70;;;;;;5071238;28;20384;-75
2022/06/06 11:13:17;;;;;;;3.67;1.30;;;23.20;11.50;;;;;;5073178;28;20406;-75
2022/06/06 11:15:52;;;;;;;4.45;1.60;;;23.50;11.30;;;;;;5060177;28;20895;-74
2022/06/06 11:18:32;;;;;;;4.55;1.15;;;23.40;10.10;;;;;;5076377;28;20956;-75
2022/06/06 11:21:29;;;;;;;7.22;1.58;;;23.10;10.50;;;;;;5075377;28;20457;-78
2022/06/06 11:24:20;;;;;;;2.80;1.10;;;23.00;11.50;;;;;;5077348;28;20394;-79
2022/06/06 11:27:12;;;;;;;3.20;1.07;;;22.80;11.80;;;;;;5073766;28;20412;-77
2022/06/06 11:29:56;;;;;;;2.80;1.30;;;22.30;12.30;;;;;;5033064;28;20407;-77
2022/06/06 11:32:53;;;;;;;2.00;1.27;;;21.90;14.00;;;;;;5071426;28;20395;-78
2022/06/06 11:35:30;;;;;;;7.60;1.70;;;20.90;16.90;;;;;;5074090;28;20419;-77
2022/06/06 11:38:28;;;;;;;2.22;1.30;;;20.10;26.70;;;;;;5087909;28;20419;-77
2022/06/06 11:41:12;;;;;;;5.90;1.60;;;19.30;25.50;;;;;;5092015;28;20542;-77
2022/06/06 11:43:56;;;;;;;1.85;1.20;;;18.90;27.20;;;;;;5087499;28;20408;-74
2022/06/06 11:46:51;;;;;;;7.00;1.40;;;18.60;30.10;;;;;;5079600;28;20426;-73
2022/06/06 11:49:16;;;;;;;2.33;1.30;;;18.40;33.30;;;;;;5028397;28;20407;-73
2022/06/06 11:52:06;;;;;;;2.20;1.40;;;18.40;32.50;;;;;;5079337;28;20422;-74
2022/06/06 11:55:10;;;;;;;1.90;1.70;;;18.80;32.30;;;;;;5079782;28;20411;-75
2022/06/06 11:58:06;;;;;;;2.50;1.20;;;19.40;30.60;;;;;;5079146;28;20457;-74
2022/06/06 12:00:44;;;;;;;3.90;1.35;;;19.60;30.50;;;;;;5075714;28;20415;-74
2022/06/06 12:03:32;;;;;;;4.15;1.40;;;19.60;27.40;;;;;;5068003;28;20410;-75
2022/06/06 12:06:15;;;;;;;1.85;1.63;;;19.60;32.50;;;;;;5070780;28;20442;-75
2022/06/06 12:09:00;;;;;;;2.60;1.75;;;19.80;30.20;;;;;;5079034;28;20531;-74
2022/06/06 12:11:46;;;;;;;1.42;1.33;;;19.80;29.90;;;;;;5073657;28;20725;-75
2022/06/06 12:14:27;;;;;;;2.20;1.60;;;20.00;26.50;;;;;;5074130;28;20421;-74
2022/06/06 12:17:27;;;;;;;3.70;1.80;;;20.10;26.60;;;;;;5075833;28;20411;-74
2022/06/06 12:20:19;;;;;;;4.00;1.70;;;20.20;26.30;;;;;;5077049;28;20489;-75
2022/06/06 12:22:45;;;;;;;3.05;1.70;;;20.30;24.60;;;;;;5073701;28;20416;-75
2022/06/06 12:25:10;;;;;;;8.20;1.80;;;20.40;25.30;;;;;;5071378;28;20408;-74
2022/06/06 12:28:09;;;;;;;2.20;1.70;;;20.70;24.60;;;;;;5070926;28;20415;-74
2022/06/06 12:30:57;;;;;;;4.97;1.50;;;21.10;24.70;;;;;;5052782;28;20502;-74
2022/06/06 12:33:33;;;;;;;4.90;1.80;;;21.40;21.10;;;;;;5061707;28;20489;-75
2022/06/06 12:36:23;;;;;;;4.93;1.80;;;21.80;18.20;;;;;;5063892;28;20438;-75
2022/06/06 12:38:58;;;;;;;4.65;1.60;;;21.70;17.60;;;;;;5068307;28;20411;-74
2022/06/06 12:41:37;;;;;;;2.58;1.30;;;21.60;17.80;;;;;;5068978;28;20399;-75
2022/06/06 12:44:08;;;;;;;5.28;1.42;;;21.90;17.70;;;;;;5069984;28;20488;-74
2022/06/06 12:47:00;;;;;;;2.80;1.63;;;22.30;16.20;;;;;;5066496;28;20772;-74
2022/06/06 12:49:39;;;;;;;2.22;1.42;;;22.00;16.90;;;;;;5069305;28;20958;-75
2022/06/06 12:52:32;;;;;;;1.77;1.30;;;22.40;16.40;;;;;;5050017;28;20400;-75
2022/06/06 12:55:34;;;;;;;2.50;1.40;;;22.40;15.20;;;;;;5069471;28;20404;-75
2022/06/06 12:58:12;;;;;;;5.60;1.60;;;22.40;15.00;;;;;;5067745;28;20487;-76
2022/06/06 13:03:52;;;;;;;2.10;1.30;;;22.80;14.40;;;;;;5071305;28;20411;-76
2022/06/06 13:06:35;;;;;;;4.18;1.55;;;22.80;14.70;;;;;;5066186;28;20400;-75
2022/06/06 13:09:28;;;;;;;1.40;1.20;;;22.90;14.00;;;;;;5072881;28;20403;-74
2022/06/06 13:12:18;;;;;;;3.90;1.35;;;23.00;12.60;;;;;;5072563;28;20494;-76
2022/06/06 13:15:23;;;;;;;2.70;1.20;;;23.50;9.80;;;;;;5075170;28;20549;-75
2022/06/06 13:18:01;;;;;;;2.33;1.30;;;24.00;8.90;;;;;;5054479;28;20865;-79
2022/06/06 13:21:03;;;;;;;2.58;1.40;;;25.00;7.50;;;;;;5070281;28;20442;-79
2022/06/06 13:23:52;;;;;;;2.70;1.30;;;25.80;4.90;;;;;;5031881;28;20412;-80
2022/06/06 13:26:34;;;;;;;2.40;0.90;;;26.10;5.30;;;;;;5040578;28;20389;-79
2022/06/06 13:29:00;;;;;;;2.40;1.10;;;25.30;4.40;;;;;;5060093;28;20411;-78
2022/06/06 13:31:51;;;;;;;4.40;1.20;;;25.20;4.60;;;;;;5078656;28;20448;-79
2022/06/06 13:34:51;;;;;;;2.85;1.10;;;25.50;5.00;;;;;;5073245;28;20400;-77
2022/06/06 13:38:03;;;;;;;1.60;1.00;;;26.30;3.20;;;;;;5057913;28;20415;-78
2022/06/06 13:40:33;;;;;;;2.00;1.10;;;26.50;1.20;;;;;;5076782;28;20403;-80
2022/06/06 13:43:28;;;;;;;2.73;1.00;;;26.90;1.00;;;;;;5082075;28;20788;-80
2022/06/06 13:46:14;;;;;;;3.72;1.20;;;26.50;2.20;;;;;;5063609;28;20464;-76
2022/06/06 13:48:40;;;;;;;2.20;1.30;;;26.60;2.50;;;;;;5083056;28;20411;-77
2022/06/06 13:51:12;;;;;;;3.17;1.20;;;27.00;2.30;;;;;;5087617;28;20399;-79
2022/06/06 13:53:45;;;;;;;3.07;1.30;;;27.20;2.20;;;;;;5086527;28;20407;-77
2022/06/06 13:56:28;;;;;;;3.10;1.20;;;27.90;1.10;;;;;;5066160;28;20443;-79
2022/06/06 13:58:59;;;;;;;2.28;1.20;;;28.20;1.50;;;;;;5082768;28;20388;-79
2022/06/06 14:01:24;;;;;;;2.77;1.20;;;28.30;1.80;;;;;;5082758;28;20939;-80
2022/06/06 14:04:11;;;;;;;2.20;1.40;;;28.70;1.00;;;;;;5068977;28;20449;-79
2022/06/06 14:06:52;;;;;;;3.17;1.27;;;28.60;1.10;;;;;;5077975;28;20884;-76
2022/06/06 14:09:36;;;;;;;1.50;1.10;;;28.60;1.70;;;;;;5060573;28;20759;-80
2022/06/06 14:12:21;;;;;;;3.92;1.17;;;28.50;1.20;;;;;;5064204;28;20403;-75
2022/06/06 14:14:51;;;;;;;3.80;1.17;;;28.00;1.20;;;;;;5074734;28;20495;-78